Accueil
METAR-TAF:

METAR-TAF

Aéroports :

Ténérife Sud, Espagne

Aéroport de Tenerife-Sud

latitude: 28-03N, longitude: 016-34W, altitude: 64 m

Observation

Le bulletin a été fait il y a 34 minutes, à 04:00 UTC
Vent 5 kt de nord
Température 20°C
Humidité 56%
Pression 1019 hPa
Visibilité 10 km ou plus
Quelques nuages à une hauteur de 3000 ft

METAR: GCTS 270400Z 36005KT 9999 FEW030 20/11 Q1019 NOSIG

Heure: 05:34 (04:34 UTC)

Prévision

Le bulletin a été fait il y a 2 heures et 34 minutes, à 02:00 UTC
Prévision valable du 27 à 03 UTC au 28 à 03 UTC
Vent 8 kt de nord/nord-est
Visibilité 10 km ou plus
Nuages épars à une hauteur de 2500 ft

TAF: GCTS 270200Z 2703/2803 03008KT 9999 SCT025 TX25/2714Z TN18/2706Z

Observations et prévisions météorologiques de plus de 4000 aéroports (messages METAR et TAF).

Les stations disponibles sont représentées par des disques jaunes et rouges sur la carte.

Passer la souris dessus pour voir le nom de la station.

Cliquer dessus pour voir les observations et prévisions météorologiques.

Pour changer de carte: cliquez sur les boutons verts avec une croix noire pour zoomer, sur le bouton vert avec un tiret pour effectuer un zoom arrière, ou sur les flèches vertes pour les cartes adjacentes.


METAR-TAF: